createdAt,value
2022-10-05T03:56:07.682Z,17.23
2022-10-05T03:58:41.093Z,19.13
2022-10-05T04:01:19.325Z,22.45
2022-10-05T04:03:56.881Z,20.08
2022-10-05T04:06:28.000Z,28.10
2022-10-05T04:09:09.152Z,22.60
2022-10-05T04:11:40.836Z,25.73
2022-10-05T04:14:18.028Z,27.45
2022-10-05T04:16:48.332Z,28.30
2022-10-05T04:19:25.899Z,34.33
2022-10-05T04:22:03.519Z,38.78
2022-10-05T04:24:40.619Z,26.65
2022-10-05T04:27:15.679Z,38.05
2022-10-05T04:29:58.020Z,37.35
2022-10-05T04:32:36.409Z,27.95
2022-10-05T04:35:20.253Z,26.67
2022-10-05T04:38:11.859Z,32.38
2022-10-05T04:41:17.787Z,31.60
2022-10-05T04:44:13.354Z,41.65
2022-10-05T04:47:19.555Z,36.75
2022-10-05T04:50:17.635Z,38.58
2022-10-05T04:53:05.128Z,36.38
2022-10-05T04:55:58.137Z,36.22
2022-10-05T04:59:03.725Z,37.28
2022-10-05T05:01:54.700Z,34.45
2022-10-05T05:04:57.341Z,36.28
2022-10-05T05:08:04.097Z,41.80
2022-10-05T05:10:54.527Z,34.90
2022-10-05T05:13:37.505Z,31.45
2022-10-05T05:16:33.286Z,26.05
2022-10-05T05:19:16.280Z,30.48
2022-10-05T05:21:58.131Z,27.02
2022-10-05T05:24:44.858Z,29.95
2022-10-05T05:27:27.598Z,31.83
2022-10-05T05:30:07.667Z,28.50
2022-10-05T05:32:48.763Z,27.13
2022-10-05T05:35:39.734Z,35.15
2022-10-05T05:38:32.737Z,27.33
2022-10-05T05:41:10.736Z,25.92
2022-10-05T05:44:19.480Z,33.20
2022-10-05T05:47:04.083Z,24.77
2022-10-05T05:49:53.143Z,26.17
2022-10-05T05:52:31.318Z,39.30
2022-10-05T05:55:07.313Z,27.88
2022-10-05T05:57:43.364Z,38.20
2022-10-05T06:00:14.451Z,36.83
2022-10-05T06:03:02.361Z,33.15
2022-10-05T06:05:40.707Z,28.95
2022-10-05T06:08:18.681Z,36.72
2022-10-05T06:10:56.500Z,33.50
2022-10-05T06:13:31.138Z,28.63
2022-10-05T06:16:08.503Z,39.35
2022-10-05T06:18:40.108Z,36.88
2022-10-05T06:21:27.122Z,31.10
2022-10-05T06:24:25.786Z,39.15
2022-10-05T06:27:44.128Z,39.47
2022-10-05T06:30:17.632Z,39.63
2022-10-05T06:33:07.509Z,36.50
2022-10-05T06:35:34.957Z,38.55
2022-10-05T06:38:49.380Z,36.63
2022-10-05T06:41:41.699Z,40.40
2022-10-05T06:44:21.640Z,38.45
2022-10-05T06:47:23.229Z,47.35
2022-10-05T06:50:52.630Z,42.45
2022-10-05T06:53:50.714Z,47.15
2022-10-05T06:56:36.616Z,43.75
2022-10-05T06:59:23.237Z,50.53
2022-10-05T07:02:33.950Z,48.22
2022-10-05T07:05:21.500Z,59.30
2022-10-05T07:07:59.695Z,63.17
2022-10-05T07:10:46.369Z,67.22
2022-10-05T07:13:35.499Z,70.10
2022-10-05T07:16:30.302Z,71.22
2022-10-05T07:19:13.301Z,67.40
2022-10-05T07:21:58.763Z,67.60
2022-10-05T07:24:42.977Z,65.88
2022-10-05T07:27:17.759Z,91.10
2022-10-05T07:29:50.789Z,83.95
2022-10-05T07:32:32.837Z,73.93
2022-10-05T07:35:41.171Z,75.30
2022-10-05T07:38:32.638Z,74.30
2022-10-05T07:44:12.562Z,73.22
2022-10-05T07:47:03.168Z,84.82
2022-10-05T07:49:52.016Z,80.85
2022-10-05T07:52:34.672Z,77.28
2022-10-05T07:55:20.985Z,76.70
2022-10-05T07:58:16.896Z,75.82
2022-10-05T08:01:06.312Z,71.60
2022-10-05T08:03:54.857Z,75.80
2022-10-05T08:06:37.664Z,73.60
2022-10-05T08:09:20.815Z,67.05
2022-10-05T08:12:17.875Z,71.65
2022-10-05T08:15:13.880Z,82.25
2022-10-05T08:18:04.322Z,69.70
2022-10-05T08:20:52.375Z,62.97
2022-10-05T08:23:31.037Z,61.10
2022-10-05T08:26:16.247Z,60.30
2022-10-05T08:29:04.914Z,61.08
2022-10-05T08:31:36.060Z,63.88
2022-10-05T08:34:21.014Z,63.47
2022-10-05T08:37:02.031Z,60.42
2022-10-05T08:39:37.317Z,62.45
2022-10-05T08:42:26.237Z,58.50
2022-10-05T08:45:18.648Z,54.50
2022-10-05T08:48:04.645Z,60.30
2022-10-05T08:51:13.612Z,60.58
2022-10-05T08:54:02.298Z,56.67
2022-10-05T08:56:41.783Z,58.35
2022-10-05T08:59:22.068Z,55.33
2022-10-05T09:02:26.254Z,60.03
2022-10-05T09:05:25.702Z,74.25
2022-10-05T09:08:31.062Z,80.85
2022-10-05T09:11:06.999Z,81.55
2022-10-05T09:14:28.358Z,80.13
2022-10-05T09:17:17.777Z,71.87
2022-10-05T09:19:53.721Z,79.45
2022-10-05T09:22:21.579Z,75.55
2022-10-05T09:24:57.174Z,68.45
2022-10-05T09:27:37.865Z,63.38
2022-10-05T09:30:27.092Z,58.42
2022-10-05T09:32:57.986Z,55.95
2022-10-05T09:35:44.242Z,64.22
2022-10-05T09:38:50.325Z,56.00
2022-10-05T09:41:35.864Z,50.33
2022-10-05T09:44:15.569Z,53.97
2022-10-05T09:47:04.795Z,50.95
2022-10-05T09:49:57.399Z,48.95
2022-10-05T09:52:42.572Z,45.30
2022-10-05T09:55:41.527Z,44.38
2022-10-05T09:58:42.294Z,42.72
2022-10-05T10:01:34.904Z,56.67
2022-10-05T10:04:11.276Z,46.13
2022-10-05T10:06:51.425Z,34.25
2022-10-05T10:09:46.640Z,35.20
2022-10-05T10:12:36.281Z,39.28
2022-10-05T10:15:44.702Z,39.42
2022-10-05T10:18:28.629Z,47.08
2022-10-05T10:21:25.318Z,34.35
2022-10-05T10:24:57.670Z,31.60
2022-10-05T10:27:33.312Z,33.72
2022-10-05T10:30:26.305Z,34.00
2022-10-05T10:33:52.614Z,32.85
2022-10-05T10:36:34.852Z,34.60
2022-10-05T10:39:21.200Z,34.80
2022-10-05T10:42:00.881Z,34.75
2022-10-05T10:44:47.261Z,36.72
2022-10-05T10:47:18.268Z,34.67
2022-10-05T10:50:05.043Z,31.65
2022-10-05T10:53:01.713Z,30.40
2022-10-05T10:55:59.784Z,28.85
2022-10-05T10:59:09.034Z,34.75
2022-10-05T11:02:18.497Z,23.88
2022-10-05T11:05:04.652Z,30.90
2022-10-05T11:08:03.288Z,27.33
2022-10-05T11:10:55.670Z,32.55
2022-10-05T11:13:47.916Z,34.47
2022-10-05T11:16:27.387Z,36.65
2022-10-05T11:20:07.307Z,23.52
2022-10-05T11:23:19.305Z,32.67
2022-10-05T11:28:50.295Z,26.95
2022-10-05T11:31:36.557Z,20.05
2022-10-05T11:34:13.563Z,24.77
2022-10-05T11:36:50.194Z,25.33
2022-10-05T11:39:39.488Z,23.30
2022-10-05T11:42:25.485Z,17.90
2022-10-05T11:45:24.834Z,20.60
2022-10-05T11:48:26.621Z,23.50
2022-10-05T11:53:43.858Z,22.60
2022-10-05T11:56:11.095Z,21.38
2022-10-05T11:58:49.473Z,22.15
2022-10-05T12:01:29.676Z,21.38
2022-10-05T12:04:05.456Z,20.48
2022-10-05T12:06:51.441Z,22.92
2022-10-05T12:09:34.614Z,19.80
2022-10-05T12:12:18.895Z,18.58
2022-10-05T12:14:52.632Z,24.63
2022-10-05T12:17:37.663Z,30.92
2022-10-05T12:20:41.152Z,25.75
2022-10-05T12:23:27.429Z,22.63
2022-10-05T12:25:55.665Z,20.92
2022-10-05T12:28:33.372Z,24.20
2022-10-05T12:31:22.490Z,22.80
2022-10-05T12:34:02.450Z,25.23
2022-10-05T12:37:03.441Z,26.38
2022-10-05T12:40:13.591Z,23.20
2022-10-05T12:43:10.343Z,29.40
2022-10-05T12:46:17.726Z,30.05
2022-10-05T12:49:15.698Z,28.15
2022-10-05T12:52:01.477Z,30.77
2022-10-05T12:54:58.138Z,24.50
2022-10-05T12:57:46.101Z,29.33
2022-10-05T13:00:22.695Z,31.67
2022-10-05T13:03:02.101Z,33.63
2022-10-05T13:05:44.792Z,28.35
2022-10-05T13:08:20.912Z,32.33
2022-10-05T13:10:48.332Z,28.83
2022-10-05T13:13:25.210Z,30.23
2022-10-05T13:15:58.204Z,33.00
2022-10-05T13:18:37.492Z,35.58
2022-10-05T13:21:29.504Z,32.63
2022-10-05T13:24:22.310Z,33.42
2022-10-05T13:26:55.226Z,32.50
2022-10-05T13:29:33.222Z,32.17
2022-10-05T13:32:09.900Z,29.00
2022-10-05T13:35:14.780Z,31.27
2022-10-05T13:38:00.320Z,25.38
2022-10-05T13:40:42.227Z,28.38
2022-10-05T13:43:13.587Z,37.83
2022-10-05T13:46:05.548Z,33.03
2022-10-05T13:49:03.101Z,32.88
2022-10-05T13:51:52.613Z,27.20
2022-10-05T13:54:42.537Z,28.95
2022-10-05T13:57:47.192Z,26.35
2022-10-05T14:00:25.669Z,31.92
2022-10-05T14:02:57.278Z,28.40
2022-10-05T14:05:27.167Z,23.10
2022-10-05T14:08:16.563Z,32.88
2022-10-05T14:10:46.692Z,31.58
2022-10-05T14:13:29.380Z,28.25
2022-10-05T14:16:04.357Z,30.00
2022-10-05T14:18:36.314Z,29.70
2022-10-05T14:21:12.787Z,28.42
2022-10-05T14:23:40.632Z,32.88
2022-10-05T14:26:40.323Z,30.30
2022-10-05T14:29:24.775Z,23.95
2022-10-05T14:32:00.996Z,31.70
2022-10-05T14:34:36.723Z,27.92
2022-10-05T14:37:20.365Z,30.75
2022-10-05T14:39:49.924Z,40.92
2022-10-05T14:42:23.407Z,28.23
2022-10-05T14:45:11.568Z,28.38
2022-10-05T14:48:10.362Z,31.00
2022-10-05T14:51:04.264Z,29.15
2022-10-05T14:53:45.826Z,35.28
2022-10-05T14:56:41.351Z,36.08
2022-10-05T14:59:12.500Z,32.97
2022-10-05T15:01:49.335Z,37.90
2022-10-05T15:04:35.574Z,31.15
2022-10-05T15:07:14.253Z,31.38
2022-10-05T15:10:03.293Z,38.72
2022-10-05T15:12:39.707Z,36.13
2022-10-05T15:15:28.891Z,45.83
2022-10-05T15:18:34.922Z,49.63
2022-10-05T15:21:09.032Z,43.92
2022-10-05T15:23:43.693Z,42.13
2022-10-05T15:26:28.702Z,49.45
2022-10-05T15:29:19.128Z,44.65
2022-10-05T15:32:03.234Z,47.30
2022-10-05T15:34:50.638Z,40.83
2022-10-05T15:37:25.397Z,47.15
2022-10-05T15:39:57.047Z,37.97
2022-10-05T15:42:44.079Z,38.83
2022-10-05T15:45:23.519Z,37.13
2022-10-05T15:48:05.635Z,36.35
2022-10-05T15:50:41.851Z,33.08
2022-10-05T15:53:43.019Z,43.92
2022-10-05T15:56:10.281Z,35.88
2022-10-05T15:59:11.298Z,36.15
2022-10-05T16:01:51.850Z,46.47
2022-10-05T16:05:40.908Z,50.05
2022-10-05T16:08:39.372Z,40.95
2022-10-05T16:11:19.060Z,41.13
2022-10-05T16:14:14.516Z,45.28
2022-10-05T16:16:59.792Z,45.55
2022-10-05T16:20:04.251Z,36.67
2022-10-05T16:22:49.991Z,34.65
2022-10-05T16:25:25.897Z,38.63
2022-10-05T16:28:05.752Z,32.45
2022-10-05T16:31:06.822Z,46.03
2022-10-05T16:33:44.579Z,38.35
2022-10-05T16:36:37.649Z,42.80
2022-10-05T16:39:11.940Z,45.87
2022-10-05T16:42:05.454Z,36.15
2022-10-05T16:44:44.503Z,38.90
2022-10-05T16:47:27.443Z,54.08
2022-10-05T16:50:00.313Z,50.15
2022-10-05T16:52:29.293Z,42.05
2022-10-05T16:55:02.925Z,43.05
2022-10-05T16:57:37.694Z,37.78
2022-10-05T17:00:08.114Z,44.15
2022-10-05T17:02:46.133Z,41.33
2022-10-05T17:05:38.755Z,34.47
2022-10-05T17:08:18.252Z,35.45
2022-10-05T17:11:00.128Z,30.10
2022-10-05T17:13:37.404Z,36.22
2022-10-05T17:16:25.012Z,35.88
2022-10-05T17:18:55.400Z,31.42
2022-10-05T17:21:35.113Z,36.60
2022-10-05T17:24:11.997Z,29.20
2022-10-05T17:26:45.339Z,29.70
2022-10-05T17:29:32.143Z,29.75
2022-10-05T17:32:06.691Z,32.45
2022-10-05T17:34:37.950Z,26.13
2022-10-05T17:37:26.965Z,28.37
2022-10-05T17:39:56.104Z,29.48
2022-10-05T17:42:26.728Z,32.38
2022-10-05T17:45:20.648Z,28.83
2022-10-05T17:48:00.944Z,30.08
2022-10-05T17:51:03.184Z,31.67
2022-10-05T17:54:01.544Z,33.13
2022-10-05T17:56:31.572Z,31.63
2022-10-05T17:59:04.511Z,28.83
2022-10-05T18:01:41.428Z,32.38
2022-10-05T18:04:12.081Z,28.35
2022-10-05T18:06:39.632Z,35.15
2022-10-05T18:09:22.404Z,38.78
2022-10-05T18:12:24.824Z,37.83
2022-10-05T18:15:07.085Z,46.08
2022-10-05T18:17:37.022Z,51.92
2022-10-05T18:20:21.742Z,60.22
2022-10-05T18:22:50.788Z,51.92
2022-10-05T18:25:38.203Z,52.30
2022-10-05T18:28:34.394Z,68.40
2022-10-05T18:31:11.526Z,64.70
2022-10-05T18:34:13.230Z,68.95
2022-10-05T18:37:04.629Z,58.20
2022-10-05T18:40:05.125Z,71.00
2022-10-05T18:43:09.550Z,53.13
2022-10-05T18:45:52.127Z,63.63
2022-10-05T18:48:22.607Z,62.35
2022-10-05T18:50:55.845Z,61.27
2022-10-05T18:53:53.641Z,60.63
2022-10-05T18:56:34.556Z,62.83
2022-10-05T18:59:29.661Z,66.18
2022-10-05T19:02:24.586Z,63.80
2022-10-05T19:05:23.602Z,50.28
2022-10-05T19:08:15.640Z,58.42
2022-10-05T19:10:50.704Z,58.55
2022-10-05T19:13:31.577Z,63.80
2022-10-05T19:16:17.243Z,56.58
2022-10-05T19:19:07.602Z,57.50
2022-10-05T19:22:10.068Z,58.35
2022-10-05T19:28:05.915Z,54.53
2022-10-05T19:31:01.527Z,51.35
2022-10-05T19:33:49.838Z,55.72
2022-10-05T19:36:55.449Z,58.70
2022-10-05T19:39:39.532Z,52.00
2022-10-05T19:42:29.448Z,60.35
2022-10-05T19:45:28.756Z,57.42
2022-10-05T19:48:26.085Z,54.72
2022-10-05T19:50:59.468Z,57.80
2022-10-05T19:53:37.778Z,55.95
2022-10-05T19:56:32.881Z,53.05
2022-10-05T19:59:13.296Z,50.78
2022-10-05T20:01:49.503Z,51.00
2022-10-05T20:04:35.759Z,51.33
2022-10-05T20:07:04.785Z,58.13
2022-10-05T20:09:58.456Z,55.03
2022-10-05T20:12:52.493Z,58.10
2022-10-05T20:15:43.079Z,55.22
2022-10-05T20:18:56.396Z,63.17
2022-10-05T20:21:45.440Z,65.82
2022-10-05T20:24:26.801Z,51.17
2022-10-05T20:27:05.146Z,48.13
2022-10-05T20:29:41.442Z,52.80
2022-10-05T20:32:12.319Z,50.67
2022-10-05T20:34:42.988Z,55.47
2022-10-05T20:37:13.432Z,57.97
2022-10-05T20:39:42.440Z,54.92
2022-10-05T20:42:11.474Z,49.42
2022-10-05T20:44:40.827Z,60.22
2022-10-05T20:47:09.551Z,54.75
2022-10-05T20:49:41.234Z,56.28
2022-10-05T20:52:11.418Z,54.97
2022-10-05T20:54:39.448Z,51.88
2022-10-05T20:57:10.405Z,59.83
2022-10-05T20:59:39.122Z,50.17
2022-10-05T21:02:07.436Z,58.30
2022-10-05T21:04:40.923Z,62.33
2022-10-05T21:07:12.413Z,62.50
2022-10-05T21:09:42.434Z,55.95
2022-10-05T21:12:11.565Z,56.05
2022-10-05T21:14:40.593Z,61.15
2022-10-05T21:17:09.537Z,56.15
2022-10-05T21:19:39.372Z,57.72
2022-10-05T21:22:09.283Z,56.08
2022-10-05T21:24:39.543Z,63.08
2022-10-05T21:27:07.344Z,53.30
2022-10-05T21:29:37.013Z,52.20
2022-10-05T21:32:08.782Z,58.45
2022-10-05T21:34:37.151Z,54.60
2022-10-05T21:37:05.335Z,53.33
2022-10-05T21:39:36.833Z,60.03
